createdAt,value
2019-05-06T00:01:04.777Z,5.42
2019-05-06T00:03:34.346Z,5.22
2019-05-06T00:06:03.970Z,6.70
2019-05-06T00:08:34.467Z,5.17
2019-05-06T00:11:04.882Z,5.43
2019-05-06T00:13:34.329Z,5.27
2019-05-06T00:16:03.915Z,4.90
2019-05-06T00:18:34.200Z,5.08
2019-05-06T00:21:04.634Z,5.00
2019-05-06T00:23:54.363Z,5.30
2019-05-06T00:26:41.404Z,5.60
2019-05-06T00:31:58.690Z,5.30
2019-05-06T00:34:26.951Z,4.70
2019-05-06T00:36:55.224Z,5.53
2019-05-06T00:39:44.425Z,4.50
2019-05-06T00:42:34.410Z,4.27
2019-05-06T00:45:01.720Z,4.10
2019-05-06T00:47:29.968Z,4.43
2019-05-06T00:49:58.242Z,4.30
2019-05-06T00:52:26.519Z,4.70
2019-05-06T00:54:54.931Z,5.17
2019-05-06T01:00:53.790Z,4.75
2019-05-06T01:03:23.875Z,5.17
2019-05-06T01:05:54.161Z,4.20
2019-05-06T01:08:24.039Z,4.90
2019-05-06T01:10:54.428Z,4.33
2019-05-06T01:18:50.279Z,5.40
2019-05-06T01:21:18.551Z,5.40
2019-05-06T01:23:46.834Z,5.70
2019-05-06T01:26:55.137Z,4.60
2019-05-06T01:29:24.046Z,4.65
2019-05-06T01:31:54.409Z,5.37
2019-05-06T01:34:24.538Z,5.53
2019-05-06T01:36:54.524Z,4.63
2019-05-06T01:39:43.610Z,5.33
2019-05-06T01:44:50.874Z,5.50
2019-05-06T01:47:19.149Z,5.60
2019-05-06T01:49:47.413Z,6.80
2019-05-06T01:52:15.676Z,4.60
2019-05-06T01:54:43.944Z,5.42
2019-05-06T01:57:13.695Z,5.33
2019-05-06T01:59:44.182Z,5.78
2019-05-06T02:02:14.166Z,5.67
2019-05-06T02:04:44.227Z,5.50
2019-05-06T02:07:14.308Z,6.23
2019-05-06T02:09:42.158Z,6.70
2019-05-06T02:12:10.411Z,5.77
2019-05-06T02:14:38.685Z,5.53
2019-05-06T02:17:06.951Z,6.03
2019-05-06T02:22:34.605Z,5.70
2019-05-06T02:28:11.362Z,6.73
2019-05-06T02:30:58.745Z,5.80
2019-05-06T02:33:46.112Z,5.90
2019-05-06T02:38:55.805Z,6.40
2019-05-06T02:41:23.387Z,6.60
2019-05-06T02:43:54.225Z,7.28
2019-05-06T02:46:23.756Z,6.77
2019-05-06T02:49:13.264Z,6.80
2019-05-06T02:51:40.690Z,6.28
2019-05-06T02:54:08.975Z,6.22
2019-05-06T02:56:37.286Z,6.08
2019-05-06T02:59:05.509Z,5.80
2019-05-06T03:01:34.207Z,6.60
2019-05-06T03:04:04.636Z,6.53
2019-05-06T03:06:34.039Z,6.43
2019-05-06T03:09:03.250Z,5.13
2019-05-06T03:11:33.160Z,6.33
2019-05-06T03:14:03.217Z,6.25
2019-05-06T03:16:33.326Z,7.47
2019-05-06T03:19:04.090Z,5.55
2019-05-06T03:21:54.086Z,5.93
2019-05-06T03:24:43.410Z,6.20
2019-05-06T03:27:10.586Z,6.60
2019-05-06T03:29:38.831Z,6.60
2019-05-06T03:32:07.962Z,7.20
2019-05-06T03:34:58.550Z,6.10
2019-05-06T03:39:54.404Z,7.05
2019-05-06T03:42:23.273Z,6.65
2019-05-06T03:47:54.074Z,5.70
2019-05-06T03:50:56.036Z,6.60
2019-05-06T03:53:24.042Z,5.85
2019-05-06T03:55:53.923Z,6.65
2019-05-06T03:58:23.614Z,6.13
2019-05-06T04:00:53.096Z,4.83
2019-05-06T04:03:28.324Z,6.70
2019-05-06T04:06:04.624Z,5.57
2019-05-06T04:09:07.076Z,6.27
2019-05-06T04:12:08.563Z,6.50
2019-05-06T04:14:36.855Z,6.43
2019-05-06T04:20:34.471Z,6.37
2019-05-06T04:23:23.372Z,7.00
2019-05-06T04:26:13.371Z,6.62
2019-05-06T04:28:43.467Z,5.80
2019-05-06T04:31:13.248Z,6.43
2019-05-06T04:33:41.040Z,6.30
2019-05-06T04:36:09.315Z,6.30
2019-05-06T04:39:13.123Z,6.63
2019-05-06T04:41:43.330Z,7.03
2019-05-06T04:44:13.898Z,6.58
2019-05-06T04:46:44.032Z,6.58
2019-05-06T04:49:14.885Z,6.70
2019-05-06T04:52:14.551Z,6.80
2019-05-06T04:54:44.114Z,6.20
2019-05-06T04:57:13.040Z,7.08
2019-05-06T04:59:43.230Z,6.97
2019-05-06T05:02:13.259Z,7.28
2019-05-06T05:04:43.248Z,6.90
2019-05-06T05:07:12.785Z,7.15
2019-05-06T05:09:42.965Z,7.05
2019-05-06T05:12:52.567Z,6.70
2019-05-06T05:15:41.779Z,6.23
2019-05-06T05:18:31.880Z,5.90
2019-05-06T05:21:33.911Z,5.70
2019-05-06T05:24:02.280Z,7.75
2019-05-06T05:27:12.403Z,5.85
2019-05-06T05:29:42.372Z,5.78
2019-05-06T05:32:12.606Z,6.30
2019-05-06T05:34:41.022Z,6.03
2019-05-06T05:37:44.756Z,5.73
2019-05-06T05:40:47.260Z,6.15
2019-05-06T05:43:34.721Z,6.00
2019-05-06T05:46:36.254Z,6.77
2019-05-06T05:49:24.638Z,5.07
2019-05-06T05:51:53.259Z,4.53
2019-05-06T05:54:23.170Z,5.40
2019-05-06T05:56:52.909Z,5.20
2019-05-06T05:59:23.147Z,4.67
2019-05-06T06:01:52.885Z,5.60
2019-05-06T06:04:57.619Z,5.17
2019-05-06T06:07:25.203Z,5.25
2019-05-06T06:12:32.511Z,5.37
2019-05-06T06:18:09.025Z,5.80
2019-05-06T06:20:56.424Z,5.03
2019-05-06T06:26:04.023Z,4.93
2019-05-06T06:28:33.669Z,4.90
2019-05-06T06:31:23.023Z,5.50
2019-05-06T06:39:28.171Z,4.55
2019-05-06T06:41:56.440Z,4.10
2019-05-06T06:47:13.650Z,4.47
2019-05-06T06:49:42.517Z,4.80
2019-05-06T06:52:14.767Z,5.37
2019-05-06T06:54:43.783Z,4.72
2019-05-06T06:57:33.904Z,5.87
2019-05-06T07:00:34.573Z,5.58
2019-05-06T07:03:22.235Z,5.12
2019-05-06T07:06:30.558Z,6.00
2019-05-06T07:08:58.805Z,4.50
2019-05-06T07:11:27.054Z,5.43
2019-05-06T07:14:36.174Z,5.60
2019-05-06T07:17:05.339Z,5.50
2019-05-06T07:25:03.697Z,4.93
2019-05-06T07:27:32.403Z,4.08
2019-05-06T07:30:02.984Z,4.80
2019-05-06T07:32:32.601Z,4.70
2019-05-06T07:35:02.238Z,5.63
2019-05-06T07:37:32.738Z,4.00
2019-05-06T07:40:03.063Z,4.20
2019-05-06T07:45:29.693Z,3.63
2019-05-06T07:50:49.221Z,3.10
2019-05-06T07:53:16.978Z,3.70
2019-05-06T07:55:45.290Z,3.60
2019-05-06T07:58:13.982Z,3.67
2019-05-06T08:00:43.703Z,4.00
2019-05-06T08:03:14.048Z,3.60
2019-05-06T08:05:54.807Z,3.80
2019-05-06T08:08:12.950Z,4.10
2019-05-06T08:10:42.773Z,3.25
2019-05-06T08:13:13.018Z,4.15
2019-05-06T08:15:42.072Z,3.77
2019-05-06T08:18:45.229Z,5.00
2019-05-06T08:26:32.329Z,3.43
2019-05-06T08:29:02.809Z,2.85
2019-05-06T08:31:32.740Z,3.87
2019-05-06T08:34:02.702Z,4.50
2019-05-06T08:39:12.938Z,3.70
2019-05-06T08:41:42.363Z,4.40
2019-05-06T08:44:12.608Z,5.15
2019-05-06T08:46:42.809Z,4.03
2019-05-06T08:49:12.311Z,4.40
2019-05-06T08:54:48.754Z,3.62
2019-05-06T08:57:17.074Z,3.17
2019-05-06T08:59:45.361Z,4.80
2019-05-06T09:02:13.910Z,4.00
2019-05-06T09:04:43.643Z,3.83
2019-05-06T09:07:12.110Z,3.80
2019-05-06T09:09:42.129Z,3.93
2019-05-06T09:12:10.373Z,2.80
2019-05-06T09:14:38.659Z,3.20
2019-05-06T09:19:49.394Z,2.97
2019-05-06T09:22:17.751Z,3.77
2019-05-06T09:24:46.062Z,3.20
2019-05-06T09:38:02.687Z,3.22
2019-05-06T09:40:31.916Z,3.55
2019-05-06T09:43:04.734Z,3.17
2019-05-06T09:45:33.042Z,3.53
2019-05-06T09:48:22.304Z,5.10
2019-05-06T09:57:37.696Z,3.20
2019-05-06T10:00:39.762Z,3.50
2019-05-06T10:03:08.030Z,3.83
2019-05-06T10:12:12.751Z,5.67
2019-05-06T10:14:43.366Z,3.37
2019-05-06T10:17:13.166Z,2.67
2019-05-06T10:19:42.964Z,3.53
2019-05-06T10:25:19.627Z,2.30
2019-05-06T10:30:56.783Z,2.23
2019-05-06T10:34:03.078Z,3.33
2019-05-06T10:40:16.531Z,2.77
2019-05-06T10:55:42.726Z,2.55
2019-05-06T10:58:12.838Z,2.63
2019-05-06T11:06:56.857Z,3.17
2019-05-06T11:12:33.642Z,3.20
2019-05-06T11:15:03.552Z,2.00
2019-05-06T11:17:32.624Z,2.30
2019-05-06T11:20:43.845Z,2.47
2019-05-06T11:23:14.163Z,3.37
2019-05-06T11:32:44.850Z,3.07
2019-05-06T11:35:53.224Z,2.60
2019-05-06T11:38:56.839Z,3.53
2019-05-06T11:42:24.995Z,3.30
2019-05-06T11:44:57.188Z,3.50
2019-05-06T11:47:44.681Z,3.10
2019-05-06T11:50:47.276Z,3.17
2019-05-06T11:56:06.593Z,2.62
2019-05-06T11:59:08.643Z,3.27
2019-05-06T12:01:53.827Z,2.73
2019-05-06T12:04:22.978Z,2.27
2019-05-06T12:09:54.362Z,2.70
2019-05-06T12:12:23.746Z,2.20
2019-05-06T12:18:23.234Z,3.02
2019-05-06T12:23:44.815Z,1.65
2019-05-06T12:26:14.046Z,2.40
2019-05-06T12:31:42.144Z,2.03
2019-05-06T12:40:17.115Z,2.07
2019-05-06T12:45:44.386Z,2.20
2019-05-06T12:53:52.722Z,4.12
2019-05-06T12:56:42.062Z,2.45
2019-05-06T13:08:21.225Z,2.42
2019-05-06T13:11:24.506Z,2.83
2019-05-06T13:14:00.206Z,3.22
2019-05-06T13:16:43.150Z,2.03
2019-05-06T13:21:59.464Z,3.00
2019-05-06T13:24:27.839Z,2.43
2019-05-06T13:30:37.925Z,1.85
2019-05-06T13:33:26.616Z,2.50
2019-05-06T13:35:55.045Z,2.30
2019-05-06T13:38:23.390Z,2.50
2019-05-06T13:40:56.622Z,1.97
2019-05-06T13:49:32.494Z,2.50
2019-05-06T13:52:42.505Z,2.60
2019-05-06T13:55:12.846Z,2.20
2019-05-06T13:57:57.758Z,2.67
2019-05-06T14:00:26.051Z,1.93
2019-05-06T14:05:33.341Z,2.93
2019-05-06T14:08:04.670Z,2.20
2019-05-06T14:10:32.787Z,2.30
2019-05-06T14:13:02.521Z,1.60
2019-05-06T14:15:32.503Z,2.27
2019-05-06T14:18:02.711Z,2.62
2019-05-06T14:20:33.538Z,2.00
2019-05-06T14:23:02.380Z,2.00
2019-05-06T14:25:52.842Z,2.00
2019-05-06T14:34:03.575Z,3.07
2019-05-06T14:36:32.744Z,2.37
2019-05-06T14:42:10.212Z,1.70
2019-05-06T14:44:38.609Z,1.77
2019-05-06T14:47:26.120Z,2.52
2019-05-06T14:49:56.728Z,2.60
2019-05-06T14:52:24.890Z,2.35
2019-05-06T14:57:55.079Z,2.13
2019-05-06T15:00:23.373Z,2.13
2019-05-06T15:02:53.303Z,1.90
2019-05-06T15:08:00.709Z,1.87
2019-05-06T15:11:03.294Z,2.03
2019-05-06T15:13:32.323Z,1.63
2019-05-06T15:16:03.483Z,1.80
2019-05-06T15:21:33.830Z,1.90
2019-05-06T15:23:43.118Z,2.22
2019-05-06T15:26:12.289Z,2.10
2019-05-06T15:28:42.594Z,3.10
2019-05-06T15:31:30.602Z,2.87
2019-05-06T15:36:56.966Z,2.27
2019-05-06T15:39:25.226Z,2.20
2019-05-06T15:41:53.521Z,2.30
2019-05-06T15:44:23.313Z,2.53
2019-05-06T15:46:52.698Z,2.57
2019-05-06T15:49:22.420Z,2.30
2019-05-06T15:54:32.251Z,2.67
2019-05-06T15:57:00.872Z,2.40
2019-05-06T16:00:09.195Z,2.40
2019-05-06T16:02:37.770Z,3.35
2019-05-06T16:05:13.941Z,2.90
2019-05-06T16:07:37.364Z,1.92
2019-05-06T16:13:13.785Z,2.00
2019-05-06T16:15:42.455Z,2.80
2019-05-06T16:18:12.776Z,2.73
2019-05-06T16:20:40.730Z,2.70
2019-05-06T16:23:28.121Z,2.50
2019-05-06T16:25:56.409Z,2.40
2019-05-06T16:28:24.690Z,2.20
2019-05-06T16:30:53.620Z,3.53
2019-05-06T16:35:52.373Z,2.40
2019-05-06T16:38:23.004Z,2.63
2019-05-06T16:41:02.150Z,3.10
2019-05-06T16:43:22.286Z,3.07
2019-05-06T16:45:52.949Z,1.77
2019-05-06T16:48:22.570Z,1.90
2019-05-06T16:50:50.749Z,2.22
2019-05-06T16:53:19.064Z,2.62
2019-05-06T16:56:06.497Z,2.33
2019-05-06T17:01:23.798Z,2.50
2019-05-06T17:04:14.333Z,3.62
2019-05-06T17:07:00.307Z,2.20
2019-05-06T17:09:28.578Z,2.12
2019-05-06T17:11:57.117Z,2.33
2019-05-06T17:14:25.386Z,1.93
2019-05-06T17:16:53.702Z,1.90
2019-05-06T17:19:23.050Z,1.77
2019-05-06T17:21:52.484Z,2.33
2019-05-06T17:24:22.119Z,1.67
2019-05-06T17:26:53.960Z,2.63
2019-05-06T17:37:41.943Z,2.97
2019-05-06T17:40:52.341Z,2.73
2019-05-06T17:43:40.173Z,1.60
2019-05-06T17:46:06.609Z,2.70
2019-05-06T17:48:53.001Z,1.87
2019-05-06T17:51:42.425Z,1.90
2019-05-06T17:54:12.349Z,1.80
2019-05-06T17:56:41.906Z,2.60
2019-05-06T17:59:10.436Z,2.27
2019-05-06T18:01:57.809Z,2.20
2019-05-06T18:04:26.077Z,1.87
2019-05-06T18:06:54.354Z,1.97
2019-05-06T18:09:22.625Z,1.87
2019-05-06T18:11:58.501Z,2.53
2019-05-06T18:14:22.996Z,3.40
2019-05-06T18:16:50.865Z,2.17
2019-05-06T18:19:19.136Z,2.00
2019-05-06T18:21:47.404Z,2.27
2019-05-06T18:24:15.678Z,2.17
2019-05-06T18:26:43.958Z,2.52
2019-05-06T18:29:12.683Z,2.13
2019-05-06T18:31:42.879Z,2.10
2019-05-06T18:34:12.906Z,1.85
2019-05-06T18:36:42.965Z,2.00
2019-05-06T18:39:12.690Z,2.63
2019-05-06T18:41:42.336Z,3.43
2019-05-06T18:44:12.028Z,3.55
2019-05-06T18:46:42.074Z,3.08
2019-05-06T18:49:12.857Z,3.63
2019-05-06T18:51:42.501Z,3.55
2019-05-06T18:54:12.418Z,3.10
2019-05-06T18:56:42.779Z,3.10
2019-05-06T18:59:12.169Z,2.37
2019-05-06T19:01:43.160Z,2.08
2019-05-06T19:07:10.476Z,1.50
2019-05-06T19:09:48.798Z,1.83
2019-05-06T19:12:28.999Z,2.57
2019-05-06T19:14:47.189Z,2.10
2019-05-06T19:17:15.461Z,2.60
2019-05-06T19:19:43.715Z,2.60
2019-05-06T19:22:13.931Z,2.30
2019-05-06T19:24:42.674Z,2.83
2019-05-06T19:27:12.741Z,2.90
2019-05-06T19:29:43.296Z,2.77
2019-05-06T19:32:12.296Z,2.55
2019-05-06T19:34:42.396Z,2.57
2019-05-06T19:37:11.966Z,2.37
2019-05-06T19:39:40.231Z,2.72
2019-05-06T19:42:08.503Z,3.02
2019-05-06T19:44:36.790Z,2.55
2019-05-06T19:47:05.043Z,2.50
2019-05-06T19:49:33.326Z,2.97
2019-05-06T19:52:03.227Z,2.13
2019-05-06T19:54:33.066Z,3.20
2019-05-06T19:57:02.458Z,3.25
2019-05-06T19:59:33.102Z,2.70
2019-05-06T20:02:01.580Z,2.75
2019-05-06T20:10:16.863Z,2.77
2019-05-06T20:15:53.204Z,4.77
2019-05-06T20:18:21.478Z,3.43
2019-05-06T20:20:49.762Z,2.40
2019-05-06T20:23:18.019Z,2.20
2019-05-06T20:25:46.290Z,2.27
2019-05-06T20:28:14.568Z,2.23
2019-05-06T20:30:42.818Z,1.80
2019-05-06T20:33:12.458Z,2.30
2019-05-06T20:35:43.162Z,2.23
2019-05-06T20:38:12.315Z,2.65
2019-05-06T20:41:15.280Z,3.02
2019-05-06T20:43:43.963Z,2.25
2019-05-06T20:46:12.530Z,2.63
2019-05-06T20:48:42.279Z,3.20
2019-05-06T20:51:12.320Z,2.43
2019-05-06T20:53:42.998Z,2.43
2019-05-06T20:56:12.405Z,1.80
2019-05-06T20:58:42.054Z,2.13
2019-05-06T21:01:10.607Z,2.50
2019-05-06T21:03:38.991Z,1.93
2019-05-06T21:06:07.253Z,1.60
2019-05-06T21:08:35.510Z,1.87
2019-05-06T21:11:04.169Z,2.00
2019-05-06T21:13:35.583Z,2.40
2019-05-06T21:16:03.738Z,1.87
2019-05-06T21:18:32.560Z,1.80
2019-05-06T21:21:02.224Z,1.73
2019-05-06T21:23:32.108Z,1.77
2019-05-06T21:26:00.470Z,1.40
2019-05-06T21:28:28.707Z,1.30
2019-05-06T21:30:56.961Z,1.43
2019-05-06T21:33:25.223Z,1.30
2019-05-06T21:35:53.498Z,1.20
2019-05-06T21:38:22.742Z,2.07
2019-05-06T21:40:52.488Z,1.20
2019-05-06T21:43:22.656Z,1.40
2019-05-06T21:45:53.972Z,2.17
2019-05-06T21:48:22.251Z,1.70
2019-05-06T21:50:52.329Z,2.17
2019-05-06T21:53:23.071Z,2.47
2019-05-06T21:55:52.472Z,1.53
2019-05-06T21:58:23.149Z,1.47
2019-05-06T22:01:10.989Z,1.30
2019-05-06T22:03:39.509Z,1.70
2019-05-06T22:06:07.772Z,1.43
2019-05-06T22:08:36.018Z,1.83
2019-05-06T22:11:04.288Z,1.22
2019-05-06T22:13:33.439Z,1.70
2019-05-06T22:16:04.771Z,1.90
2019-05-06T22:18:32.773Z,1.40
2019-05-06T22:21:22.329Z,1.53
2019-05-06T22:24:09.247Z,2.40
2019-05-06T22:26:37.535Z,1.83
2019-05-06T22:29:05.789Z,1.83
2019-05-06T22:31:34.041Z,2.80
2019-05-06T22:34:02.316Z,1.67
2019-05-06T22:36:32.328Z,1.90
2019-05-06T22:39:02.450Z,3.42
2019-05-06T22:41:32.516Z,3.30
2019-05-06T22:44:14.331Z,2.50
2019-05-06T22:46:43.161Z,3.05
2019-05-06T22:49:13.320Z,2.00
2019-05-06T22:51:42.553Z,2.47
2019-05-06T22:54:11.400Z,1.90
2019-05-06T22:56:39.648Z,2.13
2019-05-06T22:59:07.915Z,1.90
2019-05-06T23:01:55.290Z,2.30
2019-05-06T23:07:04.453Z,3.07
2019-05-06T23:09:32.681Z,2.73
2019-05-06T23:12:02.460Z,2.43
2019-05-06T23:14:34.685Z,2.63
2019-05-06T23:17:02.909Z,3.33
2019-05-06T23:19:31.814Z,3.30
2019-05-06T23:22:03.977Z,2.45
2019-05-06T23:24:32.133Z,2.33
2019-05-06T23:27:02.357Z,2.00
2019-05-06T23:29:52.541Z,1.97
2019-05-06T23:32:20.283Z,3.00
2019-05-06T23:34:48.561Z,2.33
2019-05-06T23:37:56.860Z,2.47
2019-05-06T23:41:03.826Z,2.43
2019-05-06T23:44:12.444Z,2.20
2019-05-06T23:47:19.488Z,2.40
2019-05-06T23:50:26.471Z,3.07
2019-05-06T23:53:33.462Z,2.30
2019-05-06T23:59:22.591Z,2.60
